Time;durP1;ratioP1;P1;durP2;ratioP2;P2;SDS_P1;SDS_P2;PMS_P1;PMS_P2;Temp;Humidity;BMP_temperature;BMP_pressure;BME280_temperature;BME280_humidity;BME280_pressure;Samples;Min_cycle;Max_cycle;Signal;HPM_P1;HPM_P2
2023/03/09 00:05:02;;;;;;;;;;;;;;;;;;6208147;23;19905;-79
2023/03/09 00:07:30;;;;;;;;;;;;;;;;;;6198433;23;19912;-81
2023/03/09 00:09:55;;;;;;;;;;;;;;;;;;6201071;23;19923;-83
2023/03/09 00:12:22;;;;;;;;;;;;;;;;;;6202950;23;19912;-82
2023/03/09 00:14:48;;;;;;;;;;;;;;;;;;6176938;23;19909;-82
2023/03/09 00:17:13;;;;;;;;;;;;;;;;;;6203097;23;19931;-83
2023/03/09 00:19:39;;;;;;;;;;;;;;;;;;6204276;23;19908;-83
2023/03/09 00:22:04;;;;;;;;;;;;;;;;;;6202588;23;19909;-82
2023/03/09 00:24:30;;;;;;;;;;;;;;;;;;6204493;23;19908;-82
2023/03/09 00:26:56;;;;;;;;;;;;;;;;;;6209285;23;20341;-82
2023/03/09 00:29:21;;;;;;;;;;;;;;;;;;6207655;23;19915;-83
2023/03/09 00:31:47;;;;;;;;;;;;;;;;;;6205459;23;19912;-82
2023/03/09 00:34:12;;;;;;;;;;;;;;;;;;6206638;23;19912;-82
2023/03/09 00:36:38;;;;;;;;;;;;;;;;;;6180944;23;19908;-82
2023/03/09 00:39:04;;;;;;;;;;;;;;;;;;6207116;23;20253;-82
2023/03/09 00:41:33;;;;;;;;;;;;;;;;;;6212979;23;19900;-81
2023/03/09 00:43:59;;;;;;;;;;;;;;;;;;6188631;23;19913;-82
2023/03/09 00:46:24;;;;;;;;;;;;;;;;;;6213368;23;19911;-81
2023/03/09 00:48:50;;;;;;;;;;;;;;;;;;6213549;23;19912;-81
2023/03/09 00:51:18;;;;;;;;;;;;;;;;;;6212963;23;19904;-82
2023/03/09 00:53:44;;;;;;;;;;;;;;;;;;6188422;23;19900;-81
2023/03/09 00:56:09;;;;;;;;;;;;;;;;;;6213194;23;19944;-81
2023/03/09 00:58:35;;;;;;;;;;;;;;;;;;6212883;23;19896;-83
2023/03/09 01:01:06;;;;;;;;;;;;;;;;;;6210858;23;19908;-83
2023/03/09 01:03:32;;;;;;;;;;;;;;;;;;6210137;23;19943;-83
2023/03/09 01:05:57;;;;;;;;;;;;;;;;;;6210523;23;20250;-84
2023/03/09 01:08:23;;;;;;;;;;;;;;;;;;6205873;23;19936;-83
2023/03/09 01:10:48;;;;;;;;;;;;;;;;;;6199999;23;19919;-82
2023/03/09 01:13:14;;;;;;;;;;;;;;;;;;6198308;23;20356;-82
2023/03/09 01:15:39;;;;;;;;;;;;;;;;;;6196853;23;19908;-82
2023/03/09 01:18:05;;;;;;;;;;;;;;;;;;6197017;23;19908;-82
2023/03/09 01:20:30;;;;;;;;;;;;;;;;;;6171936;23;19908;-82
2023/03/09 01:22:55;;;;;;;;;;;;;;;;;;6198486;23;19908;-81
2023/03/09 01:25:24;;;;;;;;;;;;;;;;;;6197342;23;19956;-79
2023/03/09 01:27:50;;;;;;;;;;;;;;;;;;6196802;23;19909;-80
2023/03/09 01:30:15;;;;;;;;;;;;;;;;;;6172779;23;19927;-82
2023/03/09 01:32:42;;;;;;;;;;;;;;;;;;6172274;23;19912;-81
2023/03/09 01:35:07;;;;;;;;;;;;;;;;;;6175858;23;19911;-81
2023/03/09 01:37:33;;;;;;;;;;;;;;;;;;6173689;23;19912;-82
2023/03/09 01:39:58;;;;;;;;;;;;;;;;;;6175953;23;19935;-82
2023/03/09 01:42:24;;;;;;;;;;;;;;;;;;6202407;23;19955;-82
2023/03/09 01:44:49;;;;;;;;;;;;;;;;;;6176143;23;19924;-82
2023/03/09 01:47:14;;;;;;;;;;;;;;;;;;6199834;23;19908;-82
2023/03/09 01:49:40;;;;;;;;;;;;;;;;;;6205429;23;19908;-82
2023/03/09 01:52:05;;;;;;;;;;;;;;;;;;6203052;23;19912;-82
2023/03/09 01:54:31;;;;;;;;;;;;;;;;;;6203813;23;19909;-82
2023/03/09 01:56:56;;;;;;;;;;;;;;;;;;6180878;23;19928;-83
2023/03/09 01:59:22;;;;;;;;;;;;;;;;;;6208133;23;20266;-83
2023/03/09 02:01:47;;;;;;;;;;;;;;;;;;6182512;23;19911;-82
2023/03/09 02:04:13;;;;;;;;;;;;;;;;;;6204356;23;19912;-82
2023/03/09 02:06:38;;;;;;;;;;;;;;;;;;6179513;23;19934;-83
2023/03/09 02:09:04;;;;;;;;;;;;;;;;;;6204445;23;19932;-83
2023/03/09 02:11:34;;;;;;;;;;;;;;;;;;6206715;23;19912;-83
2023/03/09 02:13:59;;;;;;;;;;;;;;;;;;6207457;23;19909;-83
2023/03/09 02:16:25;;;;;;;;;;;;;;;;;;6206909;23;19924;-82
2023/03/09 02:18:51;;;;;;;;;;;;;;;;;;6208421;23;19908;-82
2023/03/09 02:21:17;;;;;;;;;;;;;;;;;;6208451;23;19909;-82
2023/03/09 02:23:45;;;;;;;;;;;;;;;;;;6181498;23;19912;-83
2023/03/09 02:26:10;;;;;;;;;;;;;;;;;;6204618;23;19916;-83
2023/03/09 02:28:36;;;;;;;;;;;;;;;;;;6179767;23;19908;-82
2023/03/09 02:31:02;;;;;;;;;;;;;;;;;;6202906;23;19919;-81
2023/03/09 02:33:30;;;;;;;;;;;;;;;;;;6199922;23;19908;-82
2023/03/09 02:35:58;;;;;;;;;;;;;;;;;;6205927;23;19909;-82
2023/03/09 02:38:24;;;;;;;;;;;;;;;;;;6177343;23;19931;-83
2023/03/09 02:40:49;;;;;;;;;;;;;;;;;;6205515;23;19908;-81
2023/03/09 02:43:17;;;;;;;;;;;;;;;;;;6209073;23;19893;-84
2023/03/09 02:45:43;;;;;;;;;;;;;;;;;;6208955;23;19892;-83
2023/03/09 02:48:08;;;;;;;;;;;;;;;;;;6209858;23;19892;-83
2023/03/09 02:50:34;;;;;;;;;;;;;;;;;;6207407;23;19908;-83
2023/03/09 02:53:00;;;;;;;;;;;;;;;;;;6181211;23;19909;-81
2023/03/09 02:55:29;;;;;;;;;;;;;;;;;;6206519;23;19909;-83
2023/03/09 02:57:55;;;;;;;;;;;;;;;;;;6157341;23;19908;-83
2023/03/09 03:00:24;;;;;;;;;;;;;;;;;;6207449;23;19915;-83
2023/03/09 03:02:50;;;;;;;;;;;;;;;;;;6206895;23;19952;-83
2023/03/09 03:05:17;;;;;;;;;;;;;;;;;;6207429;23;20327;-84
2023/03/09 03:07:43;;;;;;;;;;;;;;;;;;6209146;23;19915;-83
2023/03/09 03:10:08;;;;;;;;;;;;;;;;;;6206852;23;19908;-85
2023/03/09 03:12:34;;;;;;;;;;;;;;;;;;6183791;23;19913;-81
2023/03/09 03:15:02;;;;;;;;;;;;;;;;;;6183238;23;19908;-83
2023/03/09 03:17:28;;;;;;;;;;;;;;;;;;6181640;23;19915;-82
2023/03/09 03:20:02;;;;;;;;;;;;;;;;;;6208178;23;19908;-83
2023/03/09 03:22:31;;;;;;;;;;;;;;;;;;6208511;23;19909;-82
2023/03/09 03:24:57;;;;;;;;;;;;;;;;;;6208073;23;19914;-81
2023/03/09 03:27:23;;;;;;;;;;;;;;;;;;6185083;23;19916;-83
2023/03/09 03:29:49;;;;;;;;;;;;;;;;;;6206305;23;19892;-81
2023/03/09 03:32:15;;;;;;;;;;;;;;;;;;6205407;23;19912;-83
2023/03/09 03:34:41;;;;;;;;;;;;;;;;;;6205546;23;19909;-83
2023/03/09 03:37:14;;;;;;;;;;;;;;;;;;6204130;23;19932;-82
2023/03/09 03:39:40;;;;;;;;;;;;;;;;;;6176141;23;19908;-82
2023/03/09 03:42:08;;;;;;;;;;;;;;;;;;6203512;23;19919;-82
2023/03/09 03:44:40;;;;;;;;;;;;;;;;;;6184278;23;19895;-82
2023/03/09 03:47:06;;;;;;;;;;;;;;;;;;6207843;23;19908;-82
2023/03/09 03:49:31;;;;;;;;;;;;;;;;;;6208832;23;19900;-82
2023/03/09 03:51:59;;;;;;;;;;;;;;;;;;6179231;23;19918;-82
2023/03/09 03:54:25;;;;;;;;;;;;;;;;;;6179295;23;19932;-83
2023/03/09 03:56:51;;;;;;;;;;;;;;;;;;6180720;23;19931;-81
2023/03/09 03:59:17;;;;;;;;;;;;;;;;;;6203924;23;19915;-82
2023/03/09 04:01:43;;;;;;;;;;;;;;;;;;6204121;23;19919;-81
2023/03/09 04:04:09;;;;;;;;;;;;;;;;;;6204592;23;19909;-83
2023/03/09 04:06:39;;;;;;;;;;;;;;;;;;6204290;23;19912;-84
2023/03/09 04:09:05;;;;;;;;;;;;;;;;;;6182840;23;19908;-82
2023/03/09 04:11:32;;;;;;;;;;;;;;;;;;6180467;23;19913;-81
2023/03/09 04:13:58;;;;;;;;;;;;;;;;;;6181155;23;19915;-80
2023/03/09 04:16:23;;;;;;;;;;;;;;;;;;6209204;23;19908;-80
2023/03/09 04:18:49;;;;;;;;;;;;;;;;;;6213050;23;19940;-82
2023/03/09 04:21:16;;;;;;;;;;;;;;;;;;6188733;23;19896;-83
2023/03/09 04:23:43;;;;;;;;;;;;;;;;;;6189061;23;19970;-83
2023/03/09 04:26:09;;;;;;;;;;;;;;;;;;6214282;23;19897;-83
2023/03/09 04:28:48;;;;;;;;;;;;;;;;;;6214147;23;19908;-82
2023/03/09 04:31:17;;;;;;;;;;;;;;;;;;6213725;23;19904;-82
2023/03/09 04:33:43;;;;;;;;;;;;;;;;;;6214054;23;19923;-82
2023/03/09 04:36:16;;;;;;;;;;;;;;;;;;6188647;23;19944;-81
2023/03/09 04:38:44;;;;;;;;;;;;;;;;;;6163730;23;19920;-82
2023/03/09 04:41:10;;;;;;;;;;;;;;;;;;6208346;23;20254;-82
2023/03/09 04:43:36;;;;;;;;;;;;;;;;;;6204158;23;19909;-82
2023/03/09 04:46:01;;;;;;;;;;;;;;;;;;6200670;23;19909;-81
2023/03/09 04:48:28;;;;;;;;;;;;;;;;;;6202038;23;19959;-82
2023/03/09 04:50:54;;;;;;;;;;;;;;;;;;6200909;23;19919;-81
2023/03/09 04:53:20;;;;;;;;;;;;;;;;;;6201474;23;19908;-82
2023/03/09 04:55:46;;;;;;;;;;;;;;;;;;6199231;23;19932;-82
2023/03/09 04:58:13;;;;;;;;;;;;;;;;;;6200568;23;19915;-83
2023/03/09 05:00:39;;;;;;;;;;;;;;;;;;6204284;23;19909;-82
2023/03/09 05:03:06;;;;;;;;;;;;;;;;;;6203866;23;19915;-82
2023/03/09 05:05:32;;;;;;;;;;;;;;;;;;6203071;23;19959;-83
2023/03/09 05:07:59;;;;;;;;;;;;;;;;;;6176477;23;20294;-83
2023/03/09 05:10:24;;;;;;;;;;;;;;;;;;6201534;23;19964;-82
2023/03/09 05:12:53;;;;;;;;;;;;;;;;;;6203522;23;19958;-82
2023/03/09 05:15:24;;;;;;;;;;;;;;;;;;6181230;23;19947;-81
2023/03/09 05:17:50;;;;;;;;;;;;;;;;;;6156986;23;19909;-82
2023/03/09 05:20:16;;;;;;;;;;;;;;;;;;6208408;23;19914;-82
2023/03/09 05:22:49;;;;;;;;;;;;;;;;;;6184073;23;19951;-82
2023/03/09 05:25:15;;;;;;;;;;;;;;;;;;6208052;23;19916;-82
2023/03/09 05:27:41;;;;;;;;;;;;;;;;;;6207798;23;19912;-82
2023/03/09 05:30:10;;;;;;;;;;;;;;;;;;6180788;23;19957;-81
2023/03/09 05:32:38;;;;;;;;;;;;;;;;;;6203440;23;19912;-83
2023/03/09 05:35:04;;;;;;;;;;;;;;;;;;6201160;23;19908;-82
2023/03/09 05:37:30;;;;;;;;;;;;;;;;;;6175729;23;19932;-81
2023/03/09 05:39:58;;;;;;;;;;;;;;;;;;6198785;23;19908;-82
2023/03/09 05:42:24;;;;;;;;;;;;;;;;;;6202779;23;19915;-82
2023/03/09 05:44:49;;;;;;;;;;;;;;;;;;6205224;23;19908;-81
2023/03/09 05:47:15;;;;;;;;;;;;;;;;;;6205014;23;19916;-81
2023/03/09 05:49:44;;;;;;;;;;;;;;;;;;6180575;23;19916;-82
2023/03/09 05:52:10;;;;;;;;;;;;;;;;;;6179056;23;19924;-82
2023/03/09 05:54:36;;;;;;;;;;;;;;;;;;6181103;23;19908;-83
2023/03/09 05:57:07;;;;;;;;;;;;;;;;;;6183394;23;19951;-84
2023/03/09 05:59:33;;;;;;;;;;;;;;;;;;6207462;23;19919;-83
2023/03/09 06:01:59;;;;;;;;;;;;;;;;;;6207806;23;19908;-84
2023/03/09 06:04:27;;;;;;;;;;;;;;;;;;6208677;23;19908;-84
2023/03/09 06:06:57;;;;;;;;;;;;;;;;;;6207351;23;19970;-80
2023/03/09 06:09:29;;;;;;;;;;;;;;;;;;6208334;23;19932;-84
2023/03/09 06:11:55;;;;;;;;;;;;;;;;;;6183362;23;19912;-82
2023/03/09 06:14:21;;;;;;;;;;;;;;;;;;6181799;23;19951;-82
2023/03/09 06:16:48;;;;;;;;;;;;;;;;;;6204538;23;19909;-83
2023/03/09 06:19:14;;;;;;;;;;;;;;;;;;6155542;23;19916;-83
2023/03/09 06:21:41;;;;;;;;;;;;;;;;;;6204917;23;19952;-84
2023/03/09 06:24:07;;;;;;;;;;;;;;;;;;6180517;23;19896;-82
2023/03/09 06:26:33;;;;;;;;;;;;;;;;;;6156685;23;19909;-83
2023/03/09 06:29:04;;;;;;;;;;;;;;;;;;6183278;23;19931;-82
2023/03/09 06:31:31;;;;;;;;;;;;;;;;;;6206547;23;19936;-83
2023/03/09 06:33:57;;;;;;;;;;;;;;;;;;6207250;23;19908;-83
2023/03/09 06:36:23;;;;;;;;;;;;;;;;;;6208804;23;19919;-82
2023/03/09 06:38:51;;;;;;;;;;;;;;;;;;6209965;23;19962;-82
2023/03/09 06:41:29;;;;;;;;;;;;;;;;;;6187495;23;19932;-83
2023/03/09 06:43:58;;;;;;;;;;;;;;;;;;6212901;23;19909;-83
2023/03/09 06:46:24;;;;;;;;;;;;;;;;;;6213133;23;19909;-84
2023/03/09 06:48:50;;;;;;;;;;;;;;;;;;6213131;23;19961;-84
2023/03/09 06:51:19;;;;;;;;;;;;;;;;;;6213496;23;19913;-84
2023/03/09 06:53:45;;;;;;;;;;;;;;;;;;6212673;23;19908;-83
2023/03/09 06:56:14;;;;;;;;;;;;;;;;;;6213398;23;19908;-83
2023/03/09 06:58:43;;;;;;;;;;;;;;;;;;6213365;23;19939;-84
2023/03/09 07:01:20;;;;;;;;;;;;;;;;;;6213831;23;19912;-84
2023/03/09 07:03:46;;;;;;;;;;;;;;;;;;6212571;23;19908;-83
2023/03/09 07:06:13;;;;;;;;;;;;;;;;;;6212694;23;19943;-83
2023/03/09 07:08:38;;;;;;;;;;;;;;;;;;6212872;23;19956;-83
2023/03/09 07:11:05;;;;;;;;;;;;;;;;;;6187368;23;19896;-83
2023/03/09 07:13:32;;;;;;;;;;;;;;;;;;6187736;23;19961;-83
2023/03/09 07:15:57;;;;;;;;;;;;;;;;;;6187942;23;19919;-84
2023/03/09 07:18:23;;;;;;;;;;;;;;;;;;6186902;23;19892;-83
2023/03/09 07:20:53;;;;;;;;;;;;;;;;;;6187384;23;19908;-83
2023/03/09 07:23:19;;;;;;;;;;;;;;;;;;6207829;23;19931;-83
2023/03/09 07:25:44;;;;;;;;;;;;;;;;;;6178899;23;19915;-83
2023/03/09 07:28:10;;;;;;;;;;;;;;;;;;6198086;23;19908;-82
2023/03/09 07:30:36;;;;;;;;;;;;;;;;;;6194408;23;19936;-83
2023/03/09 07:33:02;;;;;;;;;;;;;;;;;;6197673;23;19913;-82
2023/03/09 07:35:28;;;;;;;;;;;;;;;;;;6202642;23;19950;-83
2023/03/09 07:37:55;;;;;;;;;;;;;;;;;;6181553;23;19915;-84
2023/03/09 07:40:24;;;;;;;;;;;;;;;;;;6207265;23;19952;-82
2023/03/09 07:42:50;;;;;;;;;;;;;;;;;;6181930;23;19915;-83
2023/03/09 07:45:22;;;;;;;;;;;;;;;;;;6185866;23;19948;-83
2023/03/09 07:47:48;;;;;;;;;;;;;;;;;;6213951;23;19908;-83
2023/03/09 07:50:14;;;;;;;;;;;;;;;;;;6199738;23;19927;-84
2023/03/09 07:52:42;;;;;;;;;;;;;;;;;;6213217;23;19904;-83
2023/03/09 07:55:08;;;;;;;;;;;;;;;;;;6213568;23;20301;-84
2023/03/09 07:57:34;;;;;;;;;;;;;;;;;;6212376;23;19912;-83
2023/03/09 07:59:59;;;;;;;;;;;;;;;;;;6213209;23;19896;-83
2023/03/09 08:02:25;;;;;;;;;;;;;;;;;;6205515;23;19909;-83
2023/03/09 08:04:51;;;;;;;;;;;;;;;;;;6214455;23;19903;-83
2023/03/09 08:07:19;;;;;;;;;;;;;;;;;;6189595;23;19896;-83
2023/03/09 08:09:46;;;;;;;;;;;;;;;;;;6214029;23;19919;-84
2023/03/09 08:14:57;;;;;;;;;;;;;;;;;;6178603;23;19912;-83
2023/03/09 08:17:23;;;;;;;;;;;;;;;;;;6151703;23;19904;-83
2023/03/09 08:19:51;;;;;;;;;;;;;;;;;;6130190;23;19920;-83
2023/03/09 08:22:31;;;;;;;;;;;;;;;;;;6131963;23;19928;-77
2023/03/09 08:27:38;;;;;;;;;;;;;;;;;;6203508;23;19904;-83
2023/03/09 08:30:05;;;;;;;;;;;;;;;;;;6167456;23;19951;-83
2023/03/09 08:32:30;;;;;;;;;;;;;;;;;;6159890;23;19947;-82
2023/03/09 08:34:56;;;;;;;;;;;;;;;;;;6184379;23;19908;-81
2023/03/09 08:37:22;;;;;;;;;;;;;;;;;;6204818;23;19908;-81
2023/03/09 08:39:47;;;;;;;;;;;;;;;;;;6203163;23;19909;-82
2023/03/09 08:42:14;;;;;;;;;;;;;;;;;;6178057;23;19915;-83
2023/03/09 08:44:42;;;;;;;;;;;;;;;;;;6186525;23;19912;-82
2023/03/09 08:47:08;;;;;;;;;;;;;;;;;;6185089;23;19892;-83
2023/03/09 08:49:34;;;;;;;;;;;;;;;;;;6155892;23;19911;-84
2023/03/09 08:52:00;;;;;;;;;;;;;;;;;;6176876;23;19912;-83
2023/03/09 08:54:28;;;;;;;;;;;;;;;;;;6180132;23;19900;-82
2023/03/09 08:57:00;;;;;;;;;;;;;;;;;;6152808;23;19920;-83
2023/03/09 09:02:14;;;;;;;;;;;;;;;;;;6206426;23;19920;-84
2023/03/09 09:04:42;;;;;;;;;;;;;;;;;;6136553;23;20062;-82
2023/03/09 09:07:15;;;;;;;;;;;;;;;;;;6152607;23;19916;-83
2023/03/09 09:12:37;;;;;;;;;;;;;;;;;;6129697;23;19920;-83
2023/03/09 09:28:35;;;;;;;;;;;;;;;;;;6156044;23;19942;-79
2023/03/09 09:31:01;;;;;;;;;;;;;;;;;;6158784;23;19920;-84
2023/03/09 09:33:30;;;;;;;;;;;;;;;;;;6180513;23;19929;-82
2023/03/09 09:35:57;;;;;;;;;;;;;;;;;;6140502;23;19912;-83
2023/03/09 09:38:27;;;;;;;;;;;;;;;;;;6151874;23;20835;-81
2023/03/09 09:51:42;;;;;;;;;;;;;;;;;;6152491;23;19912;-84
2023/03/09 09:56:43;;;;;;;;;;;;;;;;;;6198995;23;19905;-83
2023/03/09 09:59:17;;;;;;;;;;;;;;;;;;6130307;23;19912;-85
2023/03/09 10:01:45;;;;;;;;;;;;;;;;;;6163057;23;20022;-83
2023/03/09 10:04:21;;;;;;;;;;;;;;;;;;6113667;23;19978;-83
2023/03/09 10:06:58;;;;;;;;;;;;;;;;;;6178337;23;19925;-81
2023/03/09 10:12:06;;;;;;;;;;;;;;;;;;6115140;23;19925;-82
2023/03/09 10:14:34;;;;;;;;;;;;;;;;;;6215087;23;19919;-85
2023/03/09 10:17:02;;;;;;;;;;;;;;;;;;6165456;23;19905;-84
2023/03/09 10:19:30;;;;;;;;;;;;;;;;;;6161125;23;19936;-84
2023/03/09 10:24:43;;;;;;;;;;;;;;;;;;6144678;23;19905;-83
2023/03/09 10:27:35;;;;;;;;;;;;;;;;;;6109560;23;19921;-79
2023/03/09 10:30:03;;;;;;;;;;;;;;;;;;6101538;23;19916;-84
2023/03/09 10:35:04;;;;;;;;;;;;;;;;;;6116676;23;20317;-81
2023/03/09 10:37:30;;;;;;;;;;;;;;;;;;6133918;23;19977;-81
2023/03/09 10:40:03;;;;;;;;;;;;;;;;;;6179838;23;19908;-84
2023/03/09 10:42:45;;;;;;;;;;;;;;;;;;6129182;23;19927;-84
2023/03/09 10:45:55;;;;;;;;;;;;;;;;;;6105583;23;19920;-84
2023/03/09 10:51:01;;;;;;;;;;;;;;;;;;6144336;23;19925;-83
2023/03/09 10:56:12;;;;;;;;;;;;;;;;;;6143266;23;19920;-78
2023/03/09 11:01:51;;;;;;;;;;;;;;;;;;6126736;23;19920;-84
2023/03/09 11:07:00;;;;;;;;;;;;;;;;;;6171795;23;19904;-84
2023/03/09 11:17:37;;;;;;;;;;;;;;;;;;6135748;23;19916;-84
2023/03/09 11:20:04;;;;;;;;;;;;;;;;;;6130983;23;19897;-85
2023/03/09 11:25:17;;;;;;;;;;;;;;;;;;6179203;23;19905;-84
2023/03/09 11:27:43;;;;;;;;;;;;;;;;;;6183016;23;19908;-84
2023/03/09 11:30:09;;;;;;;;;;;;;;;;;;6184300;23;19900;-83
2023/03/09 11:32:35;;;;;;;;;;;;;;;;;;6178539;23;20100;-82
2023/03/09 11:35:00;;;;;;;;;;;;;;;;;;6176086;23;19909;-80
2023/03/09 11:37:25;;;;;;;;;;;;;;;;;;6152988;23;19911;-82
2023/03/09 11:39:51;;;;;;;;;;;;;;;;;;6155432;23;19967;-81
2023/03/09 11:42:16;;;;;;;;;;;;;;;;;;6181070;23;19916;-82
2023/03/09 11:44:42;;;;;;;;;;;;;;;;;;6157260;23;19903;-84
2023/03/09 11:47:07;;;;;;;;;;;;;;;;;;6158496;23;19915;-82
2023/03/09 11:49:33;;;;;;;;;;;;;;;;;;6184082;23;19944;-81
2023/03/09 11:51:59;;;;;;;;;;;;;;;;;;6184060;23;19908;-83
2023/03/09 11:54:25;;;;;;;;;;;;;;;;;;6184020;23;19916;-83
2023/03/09 11:56:50;;;;;;;;;;;;;;;;;;6131514;23;19913;-82
2023/03/09 12:04:39;;;;;;;;;;;;;;;;;;6178645;23;19921;-84
2023/03/09 12:07:07;;;;;;;;;;;;;;;;;;6093383;23;19920;-82
2023/03/09 12:15:00;;;;;;;;;;;;;;;;;;6139480;23;19905;-86
2023/03/09 12:17:34;;;;;;;;;;;;;;;;;;6105573;23;19897;-84
2023/03/09 12:20:10;;;;;;;;;;;;;;;;;;6105285;23;19912;-86
2023/03/09 12:22:53;;;;;;;;;;;;;;;;;;6107389;23;19919;-86
2023/03/09 12:25:22;;;;;;;;;;;;;;;;;;6105747;23;19897;-86
2023/03/09 12:27:54;;;;;;;;;;;;;;;;;;6128312;23;19913;-86
2023/03/09 12:30:31;;;;;;;;;;;;;;;;;;6103579;23;19909;-84
2023/03/09 12:33:01;;;;;;;;;;;;;;;;;;6097775;23;19921;-84
2023/03/09 12:35:36;;;;;;;;;;;;;;;;;;6121873;23;19921;-86
2023/03/09 12:38:03;;;;;;;;;;;;;;;;;;6097859;23;19910;-86
2023/03/09 12:40:43;;;;;;;;;;;;;;;;;;6099555;23;19904;-86
2023/03/09 12:43:13;;;;;;;;;;;;;;;;;;6134827;23;19905;-84
2023/03/09 12:45:49;;;;;;;;;;;;;;;;;;6104830;23;19912;-85
2023/03/09 12:51:01;;;;;;;;;;;;;;;;;;6123716;23;19953;-86
2023/03/09 12:53:34;;;;;;;;;;;;;;;;;;6106745;23;19909;-85
2023/03/09 12:56:02;;;;;;;;;;;;;;;;;;6125238;23;19943;-85
2023/03/09 12:58:37;;;;;;;;;;;;;;;;;;6106649;23;19979;-86
2023/03/09 13:01:12;;;;;;;;;;;;;;;;;;6122522;23;19944;-85
2023/03/09 13:03:38;;;;;;;;;;;;;;;;;;6149640;23;20263;-86
2023/03/09 13:06:10;;;;;;;;;;;;;;;;;;6121147;23;19893;-85
2023/03/09 13:08:40;;;;;;;;;;;;;;;;;;6089119;23;20282;-84
2023/03/09 13:11:08;;;;;;;;;;;;;;;;;;6132105;23;19932;-85
2023/03/09 13:13:35;;;;;;;;;;;;;;;;;;6154574;23;19908;-84
2023/03/09 13:16:01;;;;;;;;;;;;;;;;;;6156184;23;19937;-86
2023/03/09 13:21:04;;;;;;;;;;;;;;;;;;6183778;23;19945;-84
2023/03/09 13:23:31;;;;;;;;;;;;;;;;;;6130894;23;19909;-84
2023/03/09 13:26:01;;;;;;;;;;;;;;;;;;6101354;23;19925;-84
2023/03/09 13:28:32;;;;;;;;;;;;;;;;;;6165344;23;19924;-86
2023/03/09 13:31:10;;;;;;;;;;;;;;;;;;6166495;23;19952;-85
2023/03/09 13:33:41;;;;;;;;;;;;;;;;;;6124293;23;19980;-85
2023/03/09 13:36:09;;;;;;;;;;;;;;;;;;6079107;23;19913;-84
2023/03/09 13:38:46;;;;;;;;;;;;;;;;;;6101755;23;19913;-84
2023/03/09 13:46:52;;;;;;;;;;;;;;;;;;6141224;23;20014;-84
2023/03/09 13:49:21;;;;;;;;;;;;;;;;;;6159658;23;19944;-81
2023/03/09 13:51:48;;;;;;;;;;;;;;;;;;6133245;23;19905;-84
2023/03/09 13:54:15;;;;;;;;;;;;;;;;;;6174618;23;19908;-77
2023/03/09 13:56:40;;;;;;;;;;;;;;;;;;6145906;23;20311;-78
2023/03/09 13:59:06;;;;;;;;;;;;;;;;;;6141339;23;19916;-83
2023/03/09 14:01:37;;;;;;;;;;;;;;;;;;6097076;23;19923;-80
2023/03/09 14:04:03;;;;;;;;;;;;;;;;;;6095614;23;19909;-83
2023/03/09 14:06:28;;;;;;;;;;;;;;;;;;6094414;23;20307;-81
2023/03/09 14:08:57;;;;;;;;;;;;;;;;;;6114043;23;19909;-80
2023/03/09 14:11:26;;;;;;;;;;;;;;;;;;6116999;23;20351;-80
2023/03/09 14:13:54;;;;;;;;;;;;;;;;;;6140916;23;19915;-81
2023/03/09 14:16:20;;;;;;;;;;;;;;;;;;6117523;23;19913;-81
2023/03/09 14:18:45;;;;;;;;;;;;;;;;;;6141412;23;19939;-81
2023/03/09 14:21:11;;;;;;;;;;;;;;;;;;6090552;23;19916;-83
2023/03/09 14:23:37;;;;;;;;;;;;;;;;;;6091356;23;19909;-81
2023/03/09 14:26:05;;;;;;;;;;;;;;;;;;6093158;23;19912;-81
2023/03/09 14:28:30;;;;;;;;;;;;;;;;;;6116810;23;19909;-82
2023/03/09 14:30:56;;;;;;;;;;;;;;;;;;6141205;23;19909;-80
2023/03/09 14:33:22;;;;;;;;;;;;;;;;;;6140878;23;19932;-81
2023/03/09 14:35:51;;;;;;;;;;;;;;;;;;6115533;23;19932;-81
2023/03/09 14:38:17;;;;;;;;;;;;;;;;;;6112145;23;20299;-79
2023/03/09 14:40:42;;;;;;;;;;;;;;;;;;6108593;23;19939;-80
2023/03/09 14:43:08;;;;;;;;;;;;;;;;;;6086756;23;19909;-79
2023/03/09 14:45:33;;;;;;;;;;;;;;;;;;6135027;23;19916;-81
2023/03/09 14:48:00;;;;;;;;;;;;;;;;;;6134578;23;19917;-79
2023/03/09 14:50:26;;;;;;;;;;;;;;;;;;6134681;23;19915;-79
2023/03/09 14:52:51;;;;;;;;;;;;;;;;;;6134683;23;19912;-81
2023/03/09 14:55:17;;;;;;;;;;;;;;;;;;6137843;23;20268;-81
2023/03/09 14:57:42;;;;;;;;;;;;;;;;;;6111946;23;20285;-81
2023/03/09 15:00:11;;;;;;;;;;;;;;;;;;6111421;23;19909;-79
2023/03/09 15:02:40;;;;;;;;;;;;;;;;;;6136457;23;19913;-81
2023/03/09 15:05:06;;;;;;;;;;;;;;;;;;6110299;23;19909;-80
2023/03/09 15:07:31;;;;;;;;;;;;;;;;;;6134519;23;20247;-80
2023/03/09 15:09:57;;;;;;;;;;;;;;;;;;6110583;23;19909;-80
2023/03/09 15:12:22;;;;;;;;;;;;;;;;;;6109780;23;19941;-81
2023/03/09 15:14:48;;;;;;;;;;;;;;;;;;6110102;23;19956;-81
2023/03/09 15:17:14;;;;;;;;;;;;;;;;;;6135460;23;19975;-81
2023/03/09 15:19:39;;;;;;;;;;;;;;;;;;6109257;23;20262;-80
2023/03/09 15:22:05;;;;;;;;;;;;;;;;;;6135691;23;20366;-81
2023/03/09 15:24:31;;;;;;;;;;;;;;;;;;6110177;23;19909;-79
2023/03/09 15:26:56;;;;;;;;;;;;;;;;;;6133592;23;20247;-80
2023/03/09 15:29:22;;;;;;;;;;;;;;;;;;6110325;23;20287;-80
2023/03/09 15:31:48;;;;;;;;;;;;;;;;;;6111996;23;20281;-81
2023/03/09 15:34:14;;;;;;;;;;;;;;;;;;6138966;23;19916;-81
2023/03/09 15:36:39;;;;;;;;;;;;;;;;;;6136351;23;19909;-80
2023/03/09 15:39:05;;;;;;;;;;;;;;;;;;6136308;23;19909;-80
2023/03/09 15:41:31;;;;;;;;;;;;;;;;;;6113337;23;19909;-80
2023/03/09 15:43:56;;;;;;;;;;;;;;;;;;6139016;23;19909;-82
2023/03/09 15:46:25;;;;;;;;;;;;;;;;;;6113866;23;20077;-82
2023/03/09 15:48:50;;;;;;;;;;;;;;;;;;6136424;23;19913;-81
2023/03/09 15:51:16;;;;;;;;;;;;;;;;;;6089386;23;19960;-82
2023/03/09 15:53:41;;;;;;;;;;;;;;;;;;6091881;23;19915;-81
2023/03/09 15:56:07;;;;;;;;;;;;;;;;;;6138597;23;19909;-81
2023/03/09 15:58:35;;;;;;;;;;;;;;;;;;6116241;23;19909;-80
2023/03/09 16:01:00;;;;;;;;;;;;;;;;;;6139413;23;19988;-81
2023/03/09 16:03:26;;;;;;;;;;;;;;;;;;6114757;23;19909;-78
2023/03/09 16:05:54;;;;;;;;;;;;;;;;;;6136312;23;19909;-79
2023/03/09 16:08:19;;;;;;;;;;;;;;;;;;6117281;23;19967;-82
2023/03/09 16:10:45;;;;;;;;;;;;;;;;;;6091476;23;19915;-81
2023/03/09 16:13:12;;;;;;;;;;;;;;;;;;6093500;23;19933;-80
2023/03/09 16:15:41;;;;;;;;;;;;;;;;;;6141965;23;19920;-81
2023/03/09 16:18:07;;;;;;;;;;;;;;;;;;6140294;23;19909;-83
2023/03/09 16:20:33;;;;;;;;;;;;;;;;;;6116659;23;19909;-80
2023/03/09 16:23:06;;;;;;;;;;;;;;;;;;5105032;27;19912;-80
2023/03/09 16:25:32;;;;;;;;;;;;;;;;;;5086527;28;19920;-83
2023/03/09 16:27:59;;;;;;;;;;;;;;;;;;5072807;28;19920;-82
2023/03/09 16:30:25;;;;;;;;;;;;;;;;;;5106865;28;19926;-80
2023/03/09 16:32:51;;;;;;;;;;;;;;;;;;5087793;28;19944;-81
2023/03/09 16:35:19;;;;;;;;;;;;;;;;;;5105353;28;19979;-81
2023/03/09 16:37:45;;;;;;;;;;;;;;;;;;5102209;28;20022;-82
2023/03/09 16:40:11;;;;;;;;;;;;;;;;;;5101094;28;19934;-81
2023/03/09 16:42:37;;;;;;;;;;;;;;;;;;5098473;28;20020;-81
2023/03/09 16:45:03;;;;;;;;;;;;;;;;;;5063923;28;19913;-80
2023/03/09 16:47:29;;;;;;;;;;;;;;;;;;5070429;28;19966;-82
2023/03/09 16:49:54;;;;;;;;;;;;;;;;;;5086414;28;19958;-81
2023/03/09 16:52:20;;;;;;;;;;;;;;;;;;5104169;28;19979;-81
2023/03/09 16:54:46;;;;;;;;;;;;;;;;;;5070036;28;19912;-80
2023/03/09 16:57:12;;;;;;;;;;;;;;;;;;5085411;28;19912;-81
2023/03/09 16:59:40;;;;;;;;;;;;;;;;;;5101353;28;19917;-80
2023/03/09 17:02:05;;;;;;;;;;;;;;;;;;5100917;28;19917;-82
2023/03/09 17:04:32;;;;;;;;;;;;;;;;;;5066523;28;20264;-81
2023/03/09 17:06:57;;;;;;;;;;;;;;;;;;5084184;28;19916;-80
2023/03/09 17:09:24;;;;;;;;;;;;;;;;;;5067568;28;19952;-82
2023/03/09 17:11:50;;;;;;;;;;;;;;;;;;5066434;28;19974;-80
2023/03/09 17:14:18;;;;;;;;;;;;;;;;;;5082325;28;20279;-80
2023/03/09 17:16:44;;;;;;;;;;;;;;;;;;5062140;28;19913;-82
2023/03/09 17:19:10;;;;;;;;;;;;;;;;;;5066004;28;19913;-80
2023/03/09 17:21:39;;;;;;;;;;;;;;;;;;5105021;28;19917;-81
2023/03/09 17:24:08;;;;;;;;;;;;;;;;;;5064627;28;19916;-82
2023/03/09 17:26:37;;;;;;;;;;;;;;;;;;5083795;28;20007;-82
2023/03/09 17:29:03;;;;;;;;;;;;;;;;;;5088065;28;19913;-81
2023/03/09 17:31:31;;;;;;;;;;;;;;;;;;5072265;28;19912;-81
2023/03/09 17:33:59;;;;;;;;;;;;;;;;;;5091797;28;19914;-81
2023/03/09 17:36:25;;;;;;;;;;;;;;;;;;5077271;28;19919;-82
2023/03/09 17:38:53;;;;;;;;;;;;;;;;;;5108466;28;19912;-83
2023/03/09 17:41:20;;;;;;;;;;;;;;;;;;5092497;28;19915;-81
2023/03/09 17:43:45;;;;;;;;;;;;;;;;;;5076271;28;19926;-80
2023/03/09 17:46:12;;;;;;;;;;;;;;;;;;5091087;28;19912;-80
2023/03/09 17:48:38;;;;;;;;;;;;;;;;;;5107120;28;19919;-82
2023/03/09 17:51:06;;;;;;;;;;;;;;;;;;5074732;28;19912;-81
2023/03/09 17:53:34;;;;;;;;;;;;;;;;;;5091509;28;19919;-82
2023/03/09 17:56:00;;;;;;;;;;;;;;;;;;5106512;28;19912;-81
2023/03/09 17:58:26;;;;;;;;;;;;;;;;;;5090760;28;20045;-82
2023/03/09 18:00:52;;;;;;;;;;;;;;;;;;5108397;28;19912;-82
2023/03/09 18:03:18;;;;;;;;;;;;;;;;;;5091654;28;19923;-82
2023/03/09 18:08:14;;;;;;;;;;;;;;;;;;4958161;28;19930;-78
2023/03/09 18:10:40;;;;;;;;;;;;;;;;;;4932232;29;19969;-79
2023/03/09 18:13:05;;;;;;;;;;;;;;;;;;4956837;29;19914;-80
2023/03/09 18:15:31;;;;;;;;;;;;;;;;;;4956626;29;19922;-79
2023/03/09 18:17:56;;;;;;;;;;;;;;;;;;4957814;28;19950;-79
2023/03/09 18:20:22;;;;;;;;;;;;;;;;;;4958466;29;20420;-79
2023/03/09 18:22:47;;;;;;;;;;;;;;;;;;4958325;29;20017;-79